sensor_id;sensor_type;location;lat;lon;timestamp;P1;P2;P0
72031;PMS5003;49185;42.320;23.198;2022-10-31T00:01:14;7.00;6.00;3.00
72031;PMS5003;49185;42.320;23.198;2022-10-31T00:03:42;9.00;7.50;2.50
72031;PMS5003;49185;42.320;23.198;2022-10-31T00:06:07;8.00;7.00;2.00
72031;PMS5003;49185;42.320;23.198;2022-10-31T00:08:33;5.67;4.67;1.00
72031;PMS5003;49185;42.320;23.198;2022-10-31T00:10:59;4.00;4.00;2.50
72031;PMS5003;49185;42.320;23.198;2022-10-31T00:13:24;7.00;6.00;3.33
72031;PMS5003;49185;42.320;23.198;2022-10-31T00:15:49;7.00;6.00;2.33
72031;PMS5003;49185;42.320;23.198;2022-10-31T00:18:15;7.00;6.67;3.00
72031;PMS5003;49185;42.320;23.198;2022-10-31T00:20:40;7.33;7.00;3.33
72031;PMS5003;49185;42.320;23.198;2022-10-31T00:23:06;7.00;7.00;2.67
72031;PMS5003;49185;42.320;23.198;2022-10-31T00:25:33;8.25;7.00;4.25
72031;PMS5003;49185;42.320;23.198;2022-10-31T00:28:00;7.75;7.25;3.00
72031;PMS5003;49185;42.320;23.198;2022-10-31T00:30:25;8.00;8.00;4.00
72031;PMS5003;49185;42.320;23.198;2022-10-31T00:32:51;8.00;7.33;4.00
72031;PMS5003;49185;42.320;23.198;2022-10-31T00:35:16;7.33;6.00;2.00
72031;PMS5003;49185;42.320;23.198;2022-10-31T00:37:41;7.00;5.00;2.00
72031;PMS5003;49185;42.320;23.198;2022-10-31T00:40:07;6.00;6.00;2.00
72031;PMS5003;49185;42.320;23.198;2022-10-31T00:42:33;6.00;6.00;3.00
72031;PMS5003;49185;42.320;23.198;2022-10-31T00:44:58;6.00;5.33;2.00
72031;PMS5003;49185;42.320;23.198;2022-10-31T00:47:24;5.00;4.00;2.00
72031;PMS5003;49185;42.320;23.198;2022-10-31T00:49:49;4.00;3.67;1.00
72031;PMS5003;49185;42.320;23.198;2022-10-31T00:52:15;5.00;5.00;1.00
72031;PMS5003;49185;42.320;23.198;2022-10-31T00:54:40;5.33;5.00;1.00
72031;PMS5003;49185;42.320;23.198;2022-10-31T00:57:05;5.00;5.00;1.00
72031;PMS5003;49185;42.320;23.198;2022-10-31T00:59:31;6.00;5.67;3.00
72031;PMS5003;49185;42.320;23.198;2022-10-31T01:01:56;7.00;6.33;2.67
72031;PMS5003;49185;42.320;23.198;2022-10-31T01:04:22;3.67;2.33;1.00
72031;PMS5003;49185;42.320;23.198;2022-10-31T01:06:47;2.00;2.00;1.00
72031;PMS5003;49185;42.320;23.198;2022-10-31T01:09:12;2.00;2.00;0.00
72031;PMS5003;49185;42.320;23.198;2022-10-31T01:11:38;5.67;5.67;1.00
72031;PMS5003;49185;42.320;23.198;2022-10-31T01:14:03;5.00;3.00;2.00
72031;PMS5003;49185;42.320;23.198;2022-10-31T01:16:29;5.00;5.00;1.00
72031;PMS5003;49185;42.320;23.198;2022-10-31T01:18:54;5.00;4.67;1.00
72031;PMS5003;49185;42.320;23.198;2022-10-31T01:21:21;5.00;5.00;0.00
72031;PMS5003;49185;42.320;23.198;2022-10-31T01:23:49;3.50;3.50;0.00
72031;PMS5003;49185;42.320;23.198;2022-10-31T01:26:19;4.00;4.00;0.00
72031;PMS5003;49185;42.320;23.198;2022-10-31T01:28:51;4.00;3.50;0.00
72031;PMS5003;49185;42.320;23.198;2022-10-31T01:31:23;4.00;4.00;0.00
72031;PMS5003;49185;42.320;23.198;2022-10-31T01:33:50;4.00;4.00;0.00
72031;PMS5003;49185;42.320;23.198;2022-10-31T01:36:18;4.00;4.00;1.00
72031;PMS5003;49185;42.320;23.198;2022-10-31T01:38:46;5.00;5.00;0.00
72031;PMS5003;49185;42.320;23.198;2022-10-31T01:41:12;4.50;4.50;0.00
72031;PMS5003;49185;42.320;23.198;2022-10-31T01:46:08;5.00;5.00;1.00
72031;PMS5003;49185;42.320;23.198;2022-10-31T01:48:34;5.00;4.33;1.00
72031;PMS5003;49185;42.320;23.198;2022-10-31T01:50:59;4.00;3.00;1.00
72031;PMS5003;49185;42.320;23.198;2022-10-31T01:53:25;4.00;4.00;0.75
72031;PMS5003;49185;42.320;23.198;2022-10-31T01:55:51;3.67;3.67;1.00
72031;PMS5003;49185;42.320;23.198;2022-10-31T01:58:19;5.00;5.00;1.00
72031;PMS5003;49185;42.320;23.198;2022-10-31T02:00:48;3.75;3.25;0.00
72031;PMS5003;49185;42.320;23.198;2022-10-31T02:03:18;3.00;3.00;0.00
72031;PMS5003;49185;42.320;23.198;2022-10-31T02:05:47;6.50;6.00;1.50
72031;PMS5003;49185;42.320;23.198;2022-10-31T02:08:14;5.00;5.00;1.00
72031;PMS5003;49185;42.320;23.198;2022-10-31T02:10:42;3.25;3.25;0.00
72031;PMS5003;49185;42.320;23.198;2022-10-31T02:13:08;6.00;4.00;1.00
72031;PMS5003;49185;42.320;23.198;2022-10-31T02:15:34;6.50;5.75;1.50
72031;PMS5003;49185;42.320;23.198;2022-10-31T02:18:01;5.00;5.00;2.25
72031;PMS5003;49185;42.320;23.198;2022-10-31T02:21:13;6.00;5.00;2.00
72031;PMS5003;49185;42.320;23.198;2022-10-31T02:23:33;5.25;5.00;2.00
72031;PMS5003;49185;42.320;23.198;2022-10-31T02:31:24;6.50;6.00;3.00
72031;PMS5003;49185;42.320;23.198;2022-10-31T02:34:01;5.50;5.50;1.00
72031;PMS5003;49185;42.320;23.198;2022-10-31T02:36:55;8.00;6.50;2.00
72031;PMS5003;49185;42.320;23.198;2022-10-31T02:39:28;8.00;8.00;2.75
72031;PMS5003;49185;42.320;23.198;2022-10-31T02:47:14;6.50;6.25;2.75
72031;PMS5003;49185;42.320;23.198;2022-10-31T02:54:46;7.00;6.50;2.00
72031;PMS5003;49185;42.320;23.198;2022-10-31T02:57:12;6.50;6.50;2.00
72031;PMS5003;49185;42.320;23.198;2022-10-31T02:59:40;7.00;7.00;2.00
72031;PMS5003;49185;42.320;23.198;2022-10-31T03:07:56;6.25;5.00;1.00
72031;PMS5003;49185;42.320;23.198;2022-10-31T03:12:58;7.67;6.00;4.00
72031;PMS5003;49185;42.320;23.198;2022-10-31T03:15:30;11.00;9.00;5.75
72031;PMS5003;49185;42.320;23.198;2022-10-31T03:18:04;11.50;9.75;5.75
72031;PMS5003;49185;42.320;23.198;2022-10-31T03:20:38;11.50;9.00;5.00
72031;PMS5003;49185;42.320;23.198;2022-10-31T03:23:08;12.25;10.25;5.00
72031;PMS5003;49185;42.320;23.198;2022-10-31T03:25:38;12.00;10.00;4.00
72031;PMS5003;49185;42.320;23.198;2022-10-31T03:28:05;8.00;7.00;2.00
72031;PMS5003;49185;42.320;23.198;2022-10-31T03:30:33;7.50;6.00;2.00
72031;PMS5003;49185;42.320;23.198;2022-10-31T03:33:03;6.00;6.00;2.00
72031;PMS5003;49185;42.320;23.198;2022-10-31T03:35:32;6.00;5.00;1.00
72031;PMS5003;49185;42.320;23.198;2022-10-31T03:37:59;5.75;4.50;2.00
72031;PMS5003;49185;42.320;23.198;2022-10-31T03:40:27;5.00;5.00;1.00
72031;PMS5003;49185;42.320;23.198;2022-10-31T03:42:56;7.25;6.50;2.00
72031;PMS5003;49185;42.320;23.198;2022-10-31T03:45:26;4.50;4.00;2.00
72031;PMS5003;49185;42.320;23.198;2022-10-31T03:47:54;5.00;4.75;2.00
72031;PMS5003;49185;42.320;23.198;2022-10-31T03:50:21;6.00;6.00;2.00
72031;PMS5003;49185;42.320;23.198;2022-10-31T03:52:57;8.25;8.25;3.00
72031;PMS5003;49185;42.320;23.198;2022-10-31T03:55:31;7.00;7.00;2.00
72031;PMS5003;49185;42.320;23.198;2022-10-31T03:58:15;8.00;7.00;3.00
72031;PMS5003;49185;42.320;23.198;2022-10-31T04:00:44;7.00;7.00;3.00
72031;PMS5003;49185;42.320;23.198;2022-10-31T04:03:30;7.00;7.00;4.00
72031;PMS5003;49185;42.320;23.198;2022-10-31T04:06:01;8.50;8.00;3.00
72031;PMS5003;49185;42.320;23.198;2022-10-31T04:08:31;7.25;7.25;3.00
72031;PMS5003;49185;42.320;23.198;2022-10-31T04:11:01;8.00;8.00;4.50
72031;PMS5003;49185;42.320;23.198;2022-10-31T04:13:29;8.00;7.00;4.00
72031;PMS5003;49185;42.320;23.198;2022-10-31T04:15:59;8.50;8.00;4.00
72031;PMS5003;49185;42.320;23.198;2022-10-31T04:18:25;9.33;8.67;6.00
72031;PMS5003;49185;42.320;23.198;2022-10-31T04:20:59;10.75;9.75;6.00
72031;PMS5003;49185;42.320;23.198;2022-10-31T04:23:26;8.00;8.00;4.00
72031;PMS5003;49185;42.320;23.198;2022-10-31T04:25:52;9.00;8.00;4.00
72031;PMS5003;49185;42.320;23.198;2022-10-31T04:28:18;10.00;8.00;3.00
72031;PMS5003;49185;42.320;23.198;2022-10-31T04:30:43;9.00;8.00;3.67
72031;PMS5003;49185;42.320;23.198;2022-10-31T04:33:09;8.00;7.33;4.00
72031;PMS5003;49185;42.320;23.198;2022-10-31T04:35:34;9.33;9.33;4.00
72031;PMS5003;49185;42.320;23.198;2022-10-31T04:38:00;11.00;10.33;5.00
72031;PMS5003;49185;42.320;23.198;2022-10-31T04:40:25;11.00;9.33;5.00
72031;PMS5003;49185;42.320;23.198;2022-10-31T04:42:51;11.67;10.67;6.00
72031;PMS5003;49185;42.320;23.198;2022-10-31T04:45:16;23.00;22.00;13.67
72031;PMS5003;49185;42.320;23.198;2022-10-31T04:47:42;27.00;23.00;16.00
72031;PMS5003;49185;42.320;23.198;2022-10-31T04:50:07;22.00;21.33;12.00
72031;PMS5003;49185;42.320;23.198;2022-10-31T04:52:38;21.50;19.00;11.50
72031;PMS5003;49185;42.320;23.198;2022-10-31T04:55:04;30.25;26.25;14.75
72031;PMS5003;49185;42.320;23.198;2022-10-31T04:57:30;46.25;36.00;22.00
72031;PMS5003;49185;42.320;23.198;2022-10-31T04:59:55;56.00;43.67;27.33
72031;PMS5003;49185;42.320;23.198;2022-10-31T05:02:20;55.33;44.00;28.00
72031;PMS5003;49185;42.320;23.198;2022-10-31T05:04:46;41.00;32.67;21.67
72031;PMS5003;49185;42.320;23.198;2022-10-31T05:07:11;29.00;27.00;18.00
72031;PMS5003;49185;42.320;23.198;2022-10-31T05:09:37;24.33;23.33;16.00
72031;PMS5003;49185;42.320;23.198;2022-10-31T05:12:02;24.00;21.00;15.00
72031;PMS5003;49185;42.320;23.198;2022-10-31T05:14:28;30.50;27.50;18.25
72031;PMS5003;49185;42.320;23.198;2022-10-31T05:16:53;34.33;31.00;20.00
72031;PMS5003;49185;42.320;23.198;2022-10-31T05:19:19;28.00;27.00;18.00
72031;PMS5003;49185;42.320;23.198;2022-10-31T05:21:44;25.00;23.33;16.00
72031;PMS5003;49185;42.320;23.198;2022-10-31T05:24:10;28.33;26.00;15.67
72031;PMS5003;49185;42.320;23.198;2022-10-31T05:26:35;51.33;41.00;25.33
72031;PMS5003;49185;42.320;23.198;2022-10-31T05:29:00;62.67;49.00;30.33
72031;PMS5003;49185;42.320;23.198;2022-10-31T05:31:26;65.67;53.33;31.00
72031;PMS5003;49185;42.320;23.198;2022-10-31T05:33:51;64.33;53.33;33.33
72031;PMS5003;49185;42.320;23.198;2022-10-31T05:36:17;64.33;53.00;34.33
72031;PMS5003;49185;42.320;23.198;2022-10-31T05:38:42;57.67;46.00;30.00
72031;PMS5003;49185;42.320;23.198;2022-10-31T05:41:08;50.67;40.00;27.00
72031;PMS5003;49185;42.320;23.198;2022-10-31T05:43:33;51.00;42.00;27.00
72031;PMS5003;49185;42.320;23.198;2022-10-31T05:45:59;50.33;41.00;27.00
72031;PMS5003;49185;42.320;23.198;2022-10-31T05:48:24;47.00;39.00;25.00
72031;PMS5003;49185;42.320;23.198;2022-10-31T05:50:49;50.33;40.67;27.33
72031;PMS5003;49185;42.320;23.198;2022-10-31T05:53:15;65.00;53.33;33.33
72031;PMS5003;49185;42.320;23.198;2022-10-31T05:55:41;64.00;53.33;33.00
72031;PMS5003;49185;42.320;23.198;2022-10-31T05:58:07;59.75;47.50;31.00
72031;PMS5003;49185;42.320;23.198;2022-10-31T06:00:32;54.00;42.33;27.67
72031;PMS5003;49185;42.320;23.198;2022-10-31T06:03:08;48.00;37.33;25.33
72031;PMS5003;49185;42.320;23.198;2022-10-31T06:05:34;41.25;35.00;24.00
72031;PMS5003;49185;42.320;23.198;2022-10-31T06:08:00;36.00;32.00;22.00
72031;PMS5003;49185;42.320;23.198;2022-10-31T06:10:25;37.00;32.00;21.67
72031;PMS5003;49185;42.320;23.198;2022-10-31T06:12:51;38.00;32.00;20.00
72031;PMS5003;49185;42.320;23.198;2022-10-31T06:15:17;35.00;30.00;20.00
72031;PMS5003;49185;42.320;23.198;2022-10-31T06:17:42;31.00;28.00;19.00
72031;PMS5003;49185;42.320;23.198;2022-10-31T06:20:08;28.00;27.00;18.00
72031;PMS5003;49185;42.320;23.198;2022-10-31T06:22:34;23.50;23.50;15.50
72031;PMS5003;49185;42.320;23.198;2022-10-31T06:25:00;23.33;20.33;13.00
72031;PMS5003;49185;42.320;23.198;2022-10-31T06:27:25;20.00;18.00;8.00
72031;PMS5003;49185;42.320;23.198;2022-10-31T06:29:51;17.00;14.00;7.00
72031;PMS5003;49185;42.320;23.198;2022-10-31T06:32:17;17.00;14.00;6.00
72031;PMS5003;49185;42.320;23.198;2022-10-31T06:34:43;17.67;16.67;7.00
72031;PMS5003;49185;42.320;23.198;2022-10-31T06:37:10;17.00;15.00;6.00
72031;PMS5003;49185;42.320;23.198;2022-10-31T06:39:36;12.50;11.00;3.25
72031;PMS5003;49185;42.320;23.198;2022-10-31T06:42:03;10.00;9.00;5.50
72031;PMS5003;49185;42.320;23.198;2022-10-31T06:44:29;10.75;10.50;5.00
72031;PMS5003;49185;42.320;23.198;2022-10-31T06:46:55;14.50;12.50;7.00
72031;PMS5003;49185;42.320;23.198;2022-10-31T06:49:20;12.00;10.00;5.00
72031;PMS5003;49185;42.320;23.198;2022-10-31T06:51:49;10.33;9.33;4.00
72031;PMS5003;49185;42.320;23.198;2022-10-31T06:54:14;12.00;11.00;5.00
72031;PMS5003;49185;42.320;23.198;2022-10-31T06:56:40;14.00;12.00;6.00
72031;PMS5003;49185;42.320;23.198;2022-10-31T06:59:06;11.00;7.33;4.00
72031;PMS5003;49185;42.320;23.198;2022-10-31T07:01:31;10.00;9.33;4.00
72031;PMS5003;49185;42.320;23.198;2022-10-31T07:03:57;12.00;11.00;5.00
72031;PMS5003;49185;42.320;23.198;2022-10-31T07:06:22;9.00;9.00;5.00
72031;PMS5003;49185;42.320;23.198;2022-10-31T07:08:48;14.67;14.67;9.00
72031;PMS5003;49185;42.320;23.198;2022-10-31T07:11:13;24.67;23.33;13.33
72031;PMS5003;49185;42.320;23.198;2022-10-31T07:13:38;31.67;29.00;19.00
72031;PMS5003;49185;42.320;23.198;2022-10-31T07:16:04;38.00;31.00;20.00
72031;PMS5003;49185;42.320;23.198;2022-10-31T07:18:30;47.75;38.25;24.25
72031;PMS5003;49185;42.320;23.198;2022-10-31T07:20:56;45.00;36.33;22.00
72031;PMS5003;49185;42.320;23.198;2022-10-31T07:23:21;37.33;31.33;22.00
72031;PMS5003;49185;42.320;23.198;2022-10-31T07:25:47;38.67;33.67;21.67
72031;PMS5003;49185;42.320;23.198;2022-10-31T07:28:12;44.00;36.00;22.67
72031;PMS5003;49185;42.320;23.198;2022-10-31T07:30:38;51.75;41.75;27.25
72031;PMS5003;49185;42.320;23.198;2022-10-31T07:33:04;57.50;46.00;30.00
72031;PMS5003;49185;42.320;23.198;2022-10-31T07:35:31;56.25;45.75;27.75
72031;PMS5003;49185;42.320;23.198;2022-10-31T07:37:56;39.50;34.75;20.25
72031;PMS5003;49185;42.320;23.198;2022-10-31T07:40:23;18.00;16.75;10.00
72031;PMS5003;49185;42.320;23.198;2022-10-31T07:42:50;12.50;10.00;3.00
72031;PMS5003;49185;42.320;23.198;2022-10-31T07:45:17;10.00;7.75;5.00
72031;PMS5003;49185;42.320;23.198;2022-10-31T07:47:48;10.00;9.00;5.00
72031;PMS5003;49185;42.320;23.198;2022-10-31T07:50:18;7.50;7.25;3.00
72031;PMS5003;49185;42.320;23.198;2022-10-31T07:52:46;42.25;33.50;20.00
72031;PMS5003;49185;42.320;23.198;2022-10-31T07:55:12;37.00;29.50;15.75
72031;PMS5003;49185;42.320;23.198;2022-10-31T07:57:37;21.50;18.25;7.00
72031;PMS5003;49185;42.320;23.198;2022-10-31T08:00:06;18.67;16.33;5.67
72031;PMS5003;49185;42.320;23.198;2022-10-31T08:02:34;6.25;2.50;1.00
72031;PMS5003;49185;42.320;23.198;2022-10-31T08:04:59;2.00;0.00;0.00
72031;PMS5003;49185;42.320;23.198;2022-10-31T08:07:26;2.00;0.00;0.00
72031;PMS5003;49185;42.320;23.198;2022-10-31T08:09:51;44.67;37.00;21.00
72031;PMS5003;49185;42.320;23.198;2022-10-31T08:12:17;24.33;23.67;11.00
72031;PMS5003;49185;42.320;23.198;2022-10-31T08:14:43;4.50;4.50;1.00
72031;PMS5003;49185;42.320;23.198;2022-10-31T08:17:08;3.00;3.00;1.00
72031;PMS5003;49185;42.320;23.198;2022-10-31T08:19:33;8.00;7.00;2.00
72031;PMS5003;49185;42.320;23.198;2022-10-31T08:21:59;11.67;7.67;2.00
72031;PMS5003;49185;42.320;23.198;2022-10-31T08:24:24;5.00;4.00;1.00
72031;PMS5003;49185;42.320;23.198;2022-10-31T08:26:50;2.00;2.00;1.00
72031;PMS5003;49185;42.320;23.198;2022-10-31T08:29:16;3.25;2.75;1.00
72031;PMS5003;49185;42.320;23.198;2022-10-31T08:31:42;0.00;0.00;0.00
72031;PMS5003;49185;42.320;23.198;2022-10-31T08:34:08;2.50;2.50;0.00
72031;PMS5003;49185;42.320;23.198;2022-10-31T08:36:33;3.00;3.00;0.00
72031;PMS5003;49185;42.320;23.198;2022-10-31T08:38:59;2.00;1.00;0.00
72031;PMS5003;49185;42.320;23.198;2022-10-31T08:41:25;1.00;0.00;0.00
72031;PMS5003;49185;42.320;23.198;2022-10-31T08:43:51;3.33;2.33;1.33
72031;PMS5003;49185;42.320;23.198;2022-10-31T08:46:16;3.33;2.00;1.33
72031;PMS5003;49185;42.320;23.198;2022-10-31T08:48:42;1.00;1.00;0.00
72031;PMS5003;49185;42.320;23.198;2022-10-31T08:51:08;0.00;0.00;0.00
72031;PMS5003;49185;42.320;23.198;2022-10-31T08:53:34;0.50;0.00;0.00
72031;PMS5003;49185;42.320;23.198;2022-10-31T08:56:00;1.00;0.00;0.00
72031;PMS5003;49185;42.320;23.198;2022-10-31T08:58:26;0.00;0.00;0.00
72031;PMS5003;49185;42.320;23.198;2022-10-31T09:00:52;0.00;0.00;0.00
72031;PMS5003;49185;42.320;23.198;2022-10-31T09:03:26;0.00;0.00;0.00
72031;PMS5003;49185;42.320;23.198;2022-10-31T09:05:58;1.50;0.50;0.00
72031;PMS5003;49185;42.320;23.198;2022-10-31T09:08:24;0.25;0.25;0.00
72031;PMS5003;49185;42.320;23.198;2022-10-31T09:10:50;3.00;2.33;0.00
72031;PMS5003;49185;42.320;23.198;2022-10-31T09:13:17;1.00;1.00;0.00
72031;PMS5003;49185;42.320;23.198;2022-10-31T09:15:45;0.00;0.00;0.00
72031;PMS5003;49185;42.320;23.198;2022-10-31T09:18:12;5.00;5.00;0.25
72031;PMS5003;49185;42.320;23.198;2022-10-31T09:20:40;3.00;3.00;1.00
72031;PMS5003;49185;42.320;23.198;2022-10-31T09:23:07;6.00;6.00;1.75
72031;PMS5003;49185;42.320;23.198;2022-10-31T09:25:35;2.75;2.75;1.00
72031;PMS5003;49185;42.320;23.198;2022-10-31T09:28:01;2.00;1.00;0.00
72031;PMS5003;49185;42.320;23.198;2022-10-31T09:30:28;2.00;2.00;0.00
72031;PMS5003;49185;42.320;23.198;2022-10-31T09:32:59;1.00;1.00;0.00
72031;PMS5003;49185;42.320;23.198;2022-10-31T09:35:26;0.00;0.00;0.00
72031;PMS5003;49185;42.320;23.198;2022-10-31T09:37:59;1.00;0.00;0.00
72031;PMS5003;49185;42.320;23.198;2022-10-31T09:40:36;0.00;0.00;0.00
72031;PMS5003;49185;42.320;23.198;2022-10-31T09:43:27;0.00;0.00;0.00
72031;PMS5003;49185;42.320;23.198;2022-10-31T09:51:20;1.25;0.00;0.00
72031;PMS5003;49185;42.320;23.198;2022-10-31T09:56:25;0.00;0.00;0.00
72031;PMS5003;49185;42.320;23.198;2022-10-31T09:58:56;0.00;0.00;0.00
72031;PMS5003;49185;42.320;23.198;2022-10-31T10:07:02;1.00;1.00;0.00
72031;PMS5003;49185;42.320;23.198;2022-10-31T10:09:37;0.00;0.00;0.00
72031;PMS5003;49185;42.320;23.198;2022-10-31T10:12:12;2.00;2.00;0.00
72031;PMS5003;49185;42.320;23.198;2022-10-31T10:28:02;0.00;0.00;0.00
72031;PMS5003;49185;42.320;23.198;2022-10-31T10:30:42;0.00;0.00;0.00
72031;PMS5003;49185;42.320;23.198;2022-10-31T10:33:13;0.00;0.00;0.00
72031;PMS5003;49185;42.320;23.198;2022-10-31T10:38:29;0.00;0.00;0.00
72031;PMS5003;49185;42.320;23.198;2022-10-31T10:41:00;0.00;0.00;0.00
72031;PMS5003;49185;42.320;23.198;2022-10-31T10:43:38;0.00;0.00;0.00
72031;PMS5003;49185;42.320;23.198;2022-10-31T11:02:40;1.00;1.00;0.00
72031;PMS5003;49185;42.320;23.198;2022-10-31T11:05:08;1.00;0.00;0.00
72031;PMS5003;49185;42.320;23.198;2022-10-31T11:07:43;0.00;0.00;0.00
72031;PMS5003;49185;42.320;23.198;2022-10-31T11:10:12;0.00;0.00;0.00
72031;PMS5003;49185;42.320;23.198;2022-10-31T11:12:39;0.50;0.50;0.00
72031;PMS5003;49185;42.320;23.198;2022-10-31T11:15:07;0.00;0.00;0.00
72031;PMS5003;49185;42.320;23.198;2022-10-31T11:17:46;0.00;0.00;0.00
72031;PMS5003;49185;42.320;23.198;2022-10-31T11:22:42;1.00;0.00;0.00
72031;PMS5003;49185;42.320;23.198;2022-10-31T11:25:20;0.00;0.00;0.00
72031;PMS5003;49185;42.320;23.198;2022-10-31T11:28:07;0.00;0.00;0.00
72031;PMS5003;49185;42.320;23.198;2022-10-31T11:30:44;0.00;0.00;0.00
72031;PMS5003;49185;42.320;23.198;2022-10-31T11:38:51;1.00;0.00;0.00
72031;PMS5003;49185;42.320;23.198;2022-10-31T11:41:18;1.00;0.00;0.00
72031;PMS5003;49185;42.320;23.198;2022-10-31T11:46:44;1.00;1.00;0.00
72031;PMS5003;49185;42.320;23.198;2022-10-31T11:52:06;3.00;3.00;0.00
72031;PMS5003;49185;42.320;23.198;2022-10-31T11:54:54;2.00;2.00;0.00
72031;PMS5003;49185;42.320;23.198;2022-10-31T11:59:51;0.00;0.00;0.00
72031;PMS5003;49185;42.320;23.198;2022-10-31T12:02:18;2.50;1.75;0.00
72031;PMS5003;49185;42.320;23.198;2022-10-31T12:04:46;5.50;5.00;0.00
72031;PMS5003;49185;42.320;23.198;2022-10-31T12:07:21;14.00;13.25;4.00
72031;PMS5003;49185;42.320;23.198;2022-10-31T12:09:47;9.00;7.50;2.00
72031;PMS5003;49185;42.320;23.198;2022-10-31T12:17:15;3.00;2.00;0.00
72031;PMS5003;49185;42.320;23.198;2022-10-31T12:26:08;2.00;2.00;0.00
72031;PMS5003;49185;42.320;23.198;2022-10-31T12:28:41;1.25;1.25;0.00
72031;PMS5003;49185;42.320;23.198;2022-10-31T12:56:26;0.00;0.00;0.00
72031;PMS5003;49185;42.320;23.198;2022-10-31T12:58:45;2.00;2.00;0.00
72031;PMS5003;49185;42.320;23.198;2022-10-31T13:04:21;0.00;0.00;0.00
72031;PMS5003;49185;42.320;23.198;2022-10-31T13:07:20;0.00;0.00;0.00
72031;PMS5003;49185;42.320;23.198;2022-10-31T13:09:56;0.50;0.50;0.00
72031;PMS5003;49185;42.320;23.198;2022-10-31T13:12:27;0.00;0.00;0.00
72031;PMS5003;49185;42.320;23.198;2022-10-31T13:14:56;0.00;0.00;0.00
72031;PMS5003;49185;42.320;23.198;2022-10-31T13:17:30;0.00;0.00;0.00
72031;PMS5003;49185;42.320;23.198;2022-10-31T13:20:34;0.50;0.00;0.00
72031;PMS5003;49185;42.320;23.198;2022-10-31T13:23:33;2.75;1.75;0.00
72031;PMS5003;49185;42.320;23.198;2022-10-31T13:26:03;2.00;1.00;0.00
72031;PMS5003;49185;42.320;23.198;2022-10-31T13:28:40;1.00;1.00;0.00
72031;PMS5003;49185;42.320;23.198;2022-10-31T13:31:11;2.00;1.00;0.00
72031;PMS5003;49185;42.320;23.198;2022-10-31T13:33:58;3.00;1.00;0.00
72031;PMS5003;49185;42.320;23.198;2022-10-31T13:39:32;2.00;1.00;0.00
72031;PMS5003;49185;42.320;23.198;2022-10-31T13:44:49;0.00;0.00;0.00
72031;PMS5003;49185;42.320;23.198;2022-10-31T13:49:51;0.00;0.00;0.00
72031;PMS5003;49185;42.320;23.198;2022-10-31T13:52:42;0.75;0.00;0.00
72031;PMS5003;49185;42.320;23.198;2022-10-31T13:55:33;3.00;2.00;0.00
72031;PMS5003;49185;42.320;23.198;2022-10-31T13:58:05;4.25;3.25;0.00
72031;PMS5003;49185;42.320;23.198;2022-10-31T14:00:46;3.75;3.75;0.00
72031;PMS5003;49185;42.320;23.198;2022-10-31T14:03:43;1.75;1.00;0.00
72031;PMS5003;49185;42.320;23.198;2022-10-31T14:06:11;2.00;2.00;1.00
72031;PMS5003;49185;42.320;23.198;2022-10-31T14:08:41;2.00;0.00;0.00
72031;PMS5003;49185;42.320;23.198;2022-10-31T14:11:22;3.00;1.00;0.00
72031;PMS5003;49185;42.320;23.198;2022-10-31T14:13:50;4.00;1.00;0.00
72031;PMS5003;49185;42.320;23.198;2022-10-31T14:16:29;3.00;1.00;0.00
72031;PMS5003;49185;42.320;23.198;2022-10-31T14:18:58;2.00;2.00;0.00
72031;PMS5003;49185;42.320;23.198;2022-10-31T14:21:27;1.50;1.50;0.00
72031;PMS5003;49185;42.320;23.198;2022-10-31T14:23:55;2.00;1.75;0.00
72031;PMS5003;49185;42.320;23.198;2022-10-31T14:28:50;5.00;3.75;0.00
72031;PMS5003;49185;42.320;23.198;2022-10-31T14:34:01;4.00;1.25;0.00
72031;PMS5003;49185;42.320;23.198;2022-10-31T14:37:01;4.00;4.00;1.00
72031;PMS5003;49185;42.320;23.198;2022-10-31T14:45:01;3.00;3.00;0.00
72031;PMS5003;49185;42.320;23.198;2022-10-31T14:47:58;1.00;1.00;0.00
72031;PMS5003;49185;42.320;23.198;2022-10-31T14:50:34;2.75;2.00;0.00
72031;PMS5003;49185;42.320;23.198;2022-10-31T14:53:11;3.00;3.00;0.00
72031;PMS5003;49185;42.320;23.198;2022-10-31T14:55:51;3.00;2.00;0.00
72031;PMS5003;49185;42.320;23.198;2022-10-31T14:58:20;3.25;3.00;0.00
72031;PMS5003;49185;42.320;23.198;2022-10-31T15:00:50;4.50;4.00;0.00
72031;PMS5003;49185;42.320;23.198;2022-10-31T15:03:24;5.25;4.75;0.00
72031;PMS5003;49185;42.320;23.198;2022-10-31T15:06:09;7.75;7.75;0.00
72031;PMS5003;49185;42.320;23.198;2022-10-31T15:08:39;5.00;5.00;1.00
72031;PMS5003;49185;42.320;23.198;2022-10-31T15:11:14;14.50;12.50;6.25
72031;PMS5003;49185;42.320;23.198;2022-10-31T15:13:49;16.50;16.00;6.00
72031;PMS5003;49185;42.320;23.198;2022-10-31T15:16:22;15.00;11.00;4.25
72031;PMS5003;49185;42.320;23.198;2022-10-31T15:21:24;10.00;9.00;4.00
72031;PMS5003;49185;42.320;23.198;2022-10-31T15:23:52;4.50;4.00;2.00
72031;PMS5003;49185;42.320;23.198;2022-10-31T15:26:21;2.00;2.00;0.00
72031;PMS5003;49185;42.320;23.198;2022-10-31T15:29:01;4.00;4.00;0.00
72031;PMS5003;49185;42.320;23.198;2022-10-31T15:31:29;6.75;5.00;0.75
72031;PMS5003;49185;42.320;23.198;2022-10-31T15:33:55;6.00;6.00;3.25
72031;PMS5003;49185;42.320;23.198;2022-10-31T15:36:27;7.50;6.25;4.00
72031;PMS5003;49185;42.320;23.198;2022-10-31T15:38:54;20.33;19.00;10.67
72031;PMS5003;49185;42.320;23.198;2022-10-31T15:41:28;27.25;24.25;13.00
72031;PMS5003;49185;42.320;23.198;2022-10-31T15:44:03;32.25;29.75;16.00
72031;PMS5003;49185;42.320;23.198;2022-10-31T15:46:38;24.00;19.50;8.00
72031;PMS5003;49185;42.320;23.198;2022-10-31T15:49:04;17.00;17.00;5.00
72031;PMS5003;49185;42.320;23.198;2022-10-31T15:51:44;15.00;13.50;5.00
72031;PMS5003;49185;42.320;23.198;2022-10-31T15:54:10;16.00;15.00;5.00
72031;PMS5003;49185;42.320;23.198;2022-10-31T15:56:38;15.00;14.00;3.00
72031;PMS5003;49185;42.320;23.198;2022-10-31T15:59:04;8.00;8.00;2.00
72031;PMS5003;49185;42.320;23.198;2022-10-31T16:01:30;5.00;5.00;2.00
72031;PMS5003;49185;42.320;23.198;2022-10-31T16:04:02;4.00;4.00;2.00
72031;PMS5003;49185;42.320;23.198;2022-10-31T16:06:56;4.00;4.00;1.00
72031;PMS5003;49185;42.320;23.198;2022-10-31T16:09:26;5.00;5.00;3.00
72031;PMS5003;49185;42.320;23.198;2022-10-31T16:11:52;6.67;6.67;2.33
72031;PMS5003;49185;42.320;23.198;2022-10-31T16:14:20;8.50;7.00;2.75
72031;PMS5003;49185;42.320;23.198;2022-10-31T16:16:50;10.00;9.50;4.00
72031;PMS5003;49185;42.320;23.198;2022-10-31T16:19:20;9.00;9.00;5.00
72031;PMS5003;49185;42.320;23.198;2022-10-31T16:21:50;14.00;12.75;7.00
72031;PMS5003;49185;42.320;23.198;2022-10-31T16:26:53;17.50;16.50;7.00
72031;PMS5003;49185;42.320;23.198;2022-10-31T16:29:24;18.00;17.00;5.75
72031;PMS5003;49185;42.320;23.198;2022-10-31T16:31:59;18.25;16.00;6.00
72031;PMS5003;49185;42.320;23.198;2022-10-31T16:34:24;18.00;17.00;6.00
72031;PMS5003;49185;42.320;23.198;2022-10-31T16:36:50;17.00;15.00;6.33
72031;PMS5003;49185;42.320;23.198;2022-10-31T16:39:15;13.00;10.00;5.00
72031;PMS5003;49185;42.320;23.198;2022-10-31T16:41:41;17.33;14.00;7.00
72031;PMS5003;49185;42.320;23.198;2022-10-31T16:44:25;17.00;15.50;7.50